sensor_id;sensor_type;location;lat;lon;timestamp;P1;durP1;ratioP1;P2;durP2;ratioP2
82170;SDS011;71755;48.038;14.346;2024-03-02T00:00:01;31.20;;;12.07;;
82170;SDS011;71755;48.038;14.346;2024-03-02T00:02:44;28.52;;;13.15;;
82170;SDS011;71755;48.038;14.346;2024-03-02T00:05:12;39.72;;;12.52;;
82170;SDS011;71755;48.038;14.346;2024-03-02T00:07:46;38.67;;;11.68;;
82170;SDS011;71755;48.038;14.346;2024-03-02T00:10:25;31.02;;;12.27;;
82170;SDS011;71755;48.038;14.346;2024-03-02T00:12:56;36.63;;;13.98;;
82170;SDS011;71755;48.038;14.346;2024-03-02T00:17:55;38.33;;;12.88;;
82170;SDS011;71755;48.038;14.346;2024-03-02T00:20:24;23.98;;;11.73;;
82170;SDS011;71755;48.038;14.346;2024-03-02T00:23:27;36.80;;;11.45;;
82170;SDS011;71755;48.038;14.346;2024-03-02T00:25:50;26.58;;;11.50;;
82170;SDS011;71755;48.038;14.346;2024-03-02T00:28:27;23.73;;;10.98;;
82170;SDS011;71755;48.038;14.346;2024-03-02T00:30:58;28.95;;;10.38;;
82170;SDS011;71755;48.038;14.346;2024-03-02T00:36:01;30.08;;;10.80;;
82170;SDS011;71755;48.038;14.346;2024-03-02T00:38:29;36.13;;;10.00;;
82170;SDS011;71755;48.038;14.346;2024-03-02T00:40:56;27.48;;;10.90;;
82170;SDS011;71755;48.038;14.346;2024-03-02T00:44:06;35.28;;;11.40;;
82170;SDS011;71755;48.038;14.346;2024-03-02T00:46:37;35.55;;;10.18;;
82170;SDS011;71755;48.038;14.346;2024-03-02T00:54:18;24.48;;;8.18;;
82170;SDS011;71755;48.038;14.346;2024-03-02T00:56:47;40.92;;;13.48;;
82170;SDS011;71755;48.038;14.346;2024-03-02T00:59:13;27.80;;;10.90;;
82170;SDS011;71755;48.038;14.346;2024-03-02T01:01:40;22.30;;;9.90;;
82170;SDS011;71755;48.038;14.346;2024-03-02T01:04:07;30.08;;;12.07;;
82170;SDS011;71755;48.038;14.346;2024-03-02T01:06:34;29.75;;;11.38;;
82170;SDS011;71755;48.038;14.346;2024-03-02T01:09:03;32.47;;;11.93;;
82170;SDS011;71755;48.038;14.346;2024-03-02T01:11:29;29.08;;;13.32;;
82170;SDS011;71755;48.038;14.346;2024-03-02T01:13:56;29.23;;;13.25;;
82170;SDS011;71755;48.038;14.346;2024-03-02T01:16:22;34.47;;;12.70;;
82170;SDS011;71755;48.038;14.346;2024-03-02T01:18:48;31.50;;;11.55;;
82170;SDS011;71755;48.038;14.346;2024-03-02T01:21:14;34.10;;;11.80;;
82170;SDS011;71755;48.038;14.346;2024-03-02T01:23:40;44.10;;;16.02;;
82170;SDS011;71755;48.038;14.346;2024-03-02T01:26:06;30.33;;;11.82;;
82170;SDS011;71755;48.038;14.346;2024-03-02T01:28:32;24.42;;;12.50;;
82170;SDS011;71755;48.038;14.346;2024-03-02T01:30:58;37.13;;;12.30;;
82170;SDS011;71755;48.038;14.346;2024-03-02T01:33:24;39.65;;;14.13;;
82170;SDS011;71755;48.038;14.346;2024-03-02T01:35:50;46.13;;;13.65;;
82170;SDS011;71755;48.038;14.346;2024-03-02T01:38:16;36.72;;;13.20;;
82170;SDS011;71755;48.038;14.346;2024-03-02T01:40:41;22.27;;;9.32;;
82170;SDS011;71755;48.038;14.346;2024-03-02T01:43:10;28.90;;;11.45;;
82170;SDS011;71755;48.038;14.346;2024-03-02T01:45:35;37.33;;;11.77;;
82170;SDS011;71755;48.038;14.346;2024-03-02T01:48:04;28.25;;;8.93;;
82170;SDS011;71755;48.038;14.346;2024-03-02T01:50:31;30.88;;;11.55;;
82170;SDS011;71755;48.038;14.346;2024-03-02T01:52:59;28.55;;;10.82;;
82170;SDS011;71755;48.038;14.346;2024-03-02T01:55:26;31.40;;;10.02;;
82170;SDS011;71755;48.038;14.346;2024-03-02T01:57:54;27.33;;;11.05;;
82170;SDS011;71755;48.038;14.346;2024-03-02T02:00:20;33.80;;;11.55;;
82170;SDS011;71755;48.038;14.346;2024-03-02T02:02:50;35.28;;;13.00;;
82170;SDS011;71755;48.038;14.346;2024-03-02T02:05:16;29.13;;;12.23;;
82170;SDS011;71755;48.038;14.346;2024-03-02T02:07:42;37.80;;;14.00;;
82170;SDS011;71755;48.038;14.346;2024-03-02T02:10:09;38.58;;;13.60;;
82170;SDS011;71755;48.038;14.346;2024-03-02T02:12:36;26.95;;;11.93;;
82170;SDS011;71755;48.038;14.346;2024-03-02T02:15:03;36.50;;;12.65;;
82170;SDS011;71755;48.038;14.346;2024-03-02T02:17:49;31.55;;;11.60;;
82170;SDS011;71755;48.038;14.346;2024-03-02T02:20:15;31.17;;;12.48;;
82170;SDS011;71755;48.038;14.346;2024-03-02T02:22:52;30.52;;;12.77;;
82170;SDS011;71755;48.038;14.346;2024-03-02T02:25:24;34.15;;;14.82;;
82170;SDS011;71755;48.038;14.346;2024-03-02T02:27:51;48.67;;;16.25;;
82170;SDS011;71755;48.038;14.346;2024-03-02T02:30:26;31.83;;;12.85;;
82170;SDS011;71755;48.038;14.346;2024-03-02T02:32:55;42.30;;;13.30;;
82170;SDS011;71755;48.038;14.346;2024-03-02T02:35:22;34.80;;;13.35;;
82170;SDS011;71755;48.038;14.346;2024-03-02T02:37:49;36.05;;;14.73;;
82170;SDS011;71755;48.038;14.346;2024-03-02T02:40:16;31.63;;;11.45;;
82170;SDS011;71755;48.038;14.346;2024-03-02T02:42:46;28.38;;;10.23;;
82170;SDS011;71755;48.038;14.346;2024-03-02T02:45:12;35.90;;;13.43;;
82170;SDS011;71755;48.038;14.346;2024-03-02T02:47:40;34.55;;;13.80;;
82170;SDS011;71755;48.038;14.346;2024-03-02T02:50:07;37.15;;;12.23;;
82170;SDS011;71755;48.038;14.346;2024-03-02T02:52:34;49.75;;;15.63;;
82170;SDS011;71755;48.038;14.346;2024-03-02T02:55:04;33.72;;;13.65;;
82170;SDS011;71755;48.038;14.346;2024-03-02T02:57:32;42.75;;;12.65;;
82170;SDS011;71755;48.038;14.346;2024-03-02T03:00:09;44.60;;;15.75;;
82170;SDS011;71755;48.038;14.346;2024-03-02T03:02:43;42.03;;;12.85;;
82170;SDS011;71755;48.038;14.346;2024-03-02T03:05:11;27.33;;;12.25;;
82170;SDS011;71755;48.038;14.346;2024-03-02T03:07:39;37.05;;;13.18;;
82170;SDS011;71755;48.038;14.346;2024-03-02T03:10:06;42.22;;;9.95;;
82170;SDS011;71755;48.038;14.346;2024-03-02T03:12:34;30.00;;;11.45;;
82170;SDS011;71755;48.038;14.346;2024-03-02T03:15:01;31.60;;;11.07;;
82170;SDS011;71755;48.038;14.346;2024-03-02T03:17:27;30.50;;;12.05;;
82170;SDS011;71755;48.038;14.346;2024-03-02T03:19:52;35.38;;;12.05;;
82170;SDS011;71755;48.038;14.346;2024-03-02T03:22:19;29.77;;;11.20;;
82170;SDS011;71755;48.038;14.346;2024-03-02T03:24:45;38.63;;;11.88;;
82170;SDS011;71755;48.038;14.346;2024-03-02T03:27:10;35.42;;;14.82;;
82170;SDS011;71755;48.038;14.346;2024-03-02T03:29:37;27.88;;;11.55;;
82170;SDS011;71755;48.038;14.346;2024-03-02T03:32:03;34.60;;;11.60;;
82170;SDS011;71755;48.038;14.346;2024-03-02T03:34:34;37.97;;;12.75;;
82170;SDS011;71755;48.038;14.346;2024-03-02T03:37:00;32.95;;;14.30;;
82170;SDS011;71755;48.038;14.346;2024-03-02T03:39:26;33.42;;;12.02;;
82170;SDS011;71755;48.038;14.346;2024-03-02T03:41:53;23.13;;;11.55;;
82170;SDS011;71755;48.038;14.346;2024-03-02T03:44:19;35.10;;;11.77;;
82170;SDS011;71755;48.038;14.346;2024-03-02T03:46:45;37.67;;;13.40;;
82170;SDS011;71755;48.038;14.346;2024-03-02T03:49:10;33.35;;;14.70;;
82170;SDS011;71755;48.038;14.346;2024-03-02T03:51:36;36.83;;;12.77;;
82170;SDS011;71755;48.038;14.346;2024-03-02T03:54:02;38.13;;;14.43;;
82170;SDS011;71755;48.038;14.346;2024-03-02T03:56:28;37.95;;;11.80;;
82170;SDS011;71755;48.038;14.346;2024-03-02T03:58:54;30.27;;;12.48;;
82170;SDS011;71755;48.038;14.346;2024-03-02T04:01:19;36.63;;;13.80;;
82170;SDS011;71755;48.038;14.346;2024-03-02T04:03:47;33.10;;;13.48;;
82170;SDS011;71755;48.038;14.346;2024-03-02T04:06:13;34.38;;;13.65;;
82170;SDS011;71755;48.038;14.346;2024-03-02T04:08:41;30.88;;;12.73;;
82170;SDS011;71755;48.038;14.346;2024-03-02T04:11:07;19.98;;;10.55;;
82170;SDS011;71755;48.038;14.346;2024-03-02T04:13:33;28.02;;;13.68;;
82170;SDS011;71755;48.038;14.346;2024-03-02T04:15:59;38.38;;;12.63;;
82170;SDS011;71755;48.038;14.346;2024-03-02T04:18:25;40.92;;;13.43;;
82170;SDS011;71755;48.038;14.346;2024-03-02T04:20:50;34.83;;;13.60;;
82170;SDS011;71755;48.038;14.346;2024-03-02T04:23:16;40.85;;;13.02;;
82170;SDS011;71755;48.038;14.346;2024-03-02T04:25:42;37.17;;;13.00;;
82170;SDS011;71755;48.038;14.346;2024-03-02T04:28:08;22.98;;;11.40;;
82170;SDS011;71755;48.038;14.346;2024-03-02T04:30:34;29.00;;;10.57;;
82170;SDS011;71755;48.038;14.346;2024-03-02T04:33:00;30.70;;;14.38;;
82170;SDS011;71755;48.038;14.346;2024-03-02T04:35:27;48.28;;;12.05;;
82170;SDS011;71755;48.038;14.346;2024-03-02T04:37:54;28.92;;;12.40;;
82170;SDS011;71755;48.038;14.346;2024-03-02T04:40:20;45.15;;;14.95;;
82170;SDS011;71755;48.038;14.346;2024-03-02T04:42:45;38.92;;;13.20;;
82170;SDS011;71755;48.038;14.346;2024-03-02T04:45:11;33.67;;;12.55;;
82170;SDS011;71755;48.038;14.346;2024-03-02T04:47:37;28.48;;;10.98;;
82170;SDS011;71755;48.038;14.346;2024-03-02T04:50:02;32.63;;;14.82;;
82170;SDS011;71755;48.038;14.346;2024-03-02T04:52:28;21.45;;;9.98;;
82170;SDS011;71755;48.038;14.346;2024-03-02T04:54:54;34.25;;;12.73;;
82170;SDS011;71755;48.038;14.346;2024-03-02T04:57:42;34.90;;;11.30;;
82170;SDS011;71755;48.038;14.346;2024-03-02T05:00:09;37.13;;;11.88;;
82170;SDS011;71755;48.038;14.346;2024-03-02T05:02:35;28.40;;;10.85;;
82170;SDS011;71755;48.038;14.346;2024-03-02T05:05:01;35.38;;;14.38;;
82170;SDS011;71755;48.038;14.346;2024-03-02T05:07:28;45.78;;;13.15;;
82170;SDS011;71755;48.038;14.346;2024-03-02T05:09:54;27.60;;;11.48;;
82170;SDS011;71755;48.038;14.346;2024-03-02T05:12:19;28.20;;;10.68;;
82170;SDS011;71755;48.038;14.346;2024-03-02T05:14:48;26.40;;;10.93;;
82170;SDS011;71755;48.038;14.346;2024-03-02T05:17:14;30.35;;;10.60;;
82170;SDS011;71755;48.038;14.346;2024-03-02T05:19:39;25.08;;;10.95;;
82170;SDS011;71755;48.038;14.346;2024-03-02T05:22:05;41.75;;;13.13;;
82170;SDS011;71755;48.038;14.346;2024-03-02T05:24:31;33.53;;;12.18;;
82170;SDS011;71755;48.038;14.346;2024-03-02T05:26:57;31.65;;;11.90;;
82170;SDS011;71755;48.038;14.346;2024-03-02T05:29:22;35.65;;;10.73;;
82170;SDS011;71755;48.038;14.346;2024-03-02T05:31:48;32.17;;;12.90;;
82170;SDS011;71755;48.038;14.346;2024-03-02T05:34:14;31.02;;;14.57;;
82170;SDS011;71755;48.038;14.346;2024-03-02T05:36:40;33.28;;;11.77;;
82170;SDS011;71755;48.038;14.346;2024-03-02T05:39:06;25.67;;;11.18;;
82170;SDS011;71755;48.038;14.346;2024-03-02T05:41:34;38.90;;;10.45;;
82170;SDS011;71755;48.038;14.346;2024-03-02T05:44:01;28.00;;;11.50;;
82170;SDS011;71755;48.038;14.346;2024-03-02T05:46:27;26.33;;;10.35;;
82170;SDS011;71755;48.038;14.346;2024-03-02T05:48:53;37.90;;;13.05;;
82170;SDS011;71755;48.038;14.346;2024-03-02T05:51:19;35.67;;;15.80;;
82170;SDS011;71755;48.038;14.346;2024-03-02T05:53:45;33.17;;;12.35;;
82170;SDS011;71755;48.038;14.346;2024-03-02T05:56:11;34.63;;;13.85;;
82170;SDS011;71755;48.038;14.346;2024-03-02T05:58:37;31.83;;;14.68;;
82170;SDS011;71755;48.038;14.346;2024-03-02T06:01:22;32.28;;;11.60;;
82170;SDS011;71755;48.038;14.346;2024-03-02T06:03:54;33.88;;;12.93;;
82170;SDS011;71755;48.038;14.346;2024-03-02T06:06:21;29.70;;;12.15;;
82170;SDS011;71755;48.038;14.346;2024-03-02T06:08:48;35.42;;;12.77;;
82170;SDS011;71755;48.038;14.346;2024-03-02T06:11:14;31.67;;;12.95;;
82170;SDS011;71755;48.038;14.346;2024-03-02T06:13:39;45.80;;;14.63;;
82170;SDS011;71755;48.038;14.346;2024-03-02T06:16:05;32.70;;;12.63;;
82170;SDS011;71755;48.038;14.346;2024-03-02T06:18:31;36.15;;;11.80;;
82170;SDS011;71755;48.038;14.346;2024-03-02T06:20:57;47.90;;;13.18;;
82170;SDS011;71755;48.038;14.346;2024-03-02T06:23:23;41.10;;;13.63;;
82170;SDS011;71755;48.038;14.346;2024-03-02T06:25:48;41.28;;;12.45;;
82170;SDS011;71755;48.038;14.346;2024-03-02T06:28:14;31.15;;;13.32;;
82170;SDS011;71755;48.038;14.346;2024-03-02T06:30:41;46.58;;;15.63;;
82170;SDS011;71755;48.038;14.346;2024-03-02T06:33:09;39.67;;;12.70;;
82170;SDS011;71755;48.038;14.346;2024-03-02T06:35:35;36.50;;;13.50;;
82170;SDS011;71755;48.038;14.346;2024-03-02T06:38:01;42.80;;;13.52;;
82170;SDS011;71755;48.038;14.346;2024-03-02T06:40:27;39.92;;;14.55;;
82170;SDS011;71755;48.038;14.346;2024-03-02T06:42:53;39.38;;;13.13;;
82170;SDS011;71755;48.038;14.346;2024-03-02T06:45:19;35.00;;;12.25;;
82170;SDS011;71755;48.038;14.346;2024-03-02T06:47:45;49.92;;;15.57;;
82170;SDS011;71755;48.038;14.346;2024-03-02T06:50:11;37.78;;;14.27;;
82170;SDS011;71755;48.038;14.346;2024-03-02T06:52:37;34.83;;;14.55;;
82170;SDS011;71755;48.038;14.346;2024-03-02T06:55:04;40.03;;;14.60;;
82170;SDS011;71755;48.038;14.346;2024-03-02T06:57:31;33.33;;;15.38;;
82170;SDS011;71755;48.038;14.346;2024-03-02T06:59:56;36.15;;;15.23;;
82170;SDS011;71755;48.038;14.346;2024-03-02T07:02:24;49.13;;;12.80;;
82170;SDS011;71755;48.038;14.346;2024-03-02T07:04:53;37.65;;;12.30;;
82170;SDS011;71755;48.038;14.346;2024-03-02T07:07:20;27.00;;;11.75;;
82170;SDS011;71755;48.038;14.346;2024-03-02T07:09:46;39.35;;;13.68;;
82170;SDS011;71755;48.038;14.346;2024-03-02T07:12:13;37.38;;;14.20;;
82170;SDS011;71755;48.038;14.346;2024-03-02T07:14:40;35.03;;;11.25;;
82170;SDS011;71755;48.038;14.346;2024-03-02T07:17:37;34.55;;;12.75;;
82170;SDS011;71755;48.038;14.346;2024-03-02T07:20:02;38.83;;;13.60;;
82170;SDS011;71755;48.038;14.346;2024-03-02T07:22:29;39.42;;;12.10;;
82170;SDS011;71755;48.038;14.346;2024-03-02T07:24:55;40.40;;;14.90;;
82170;SDS011;71755;48.038;14.346;2024-03-02T07:27:21;30.98;;;12.75;;
82170;SDS011;71755;48.038;14.346;2024-03-02T07:29:47;36.03;;;12.73;;
82170;SDS011;71755;48.038;14.346;2024-03-02T07:32:13;39.88;;;11.48;;
82170;SDS011;71755;48.038;14.346;2024-03-02T07:34:39;31.60;;;13.10;;
82170;SDS011;71755;48.038;14.346;2024-03-02T07:37:05;30.75;;;12.80;;
82170;SDS011;71755;48.038;14.346;2024-03-02T07:39:31;35.22;;;13.52;;
82170;SDS011;71755;48.038;14.346;2024-03-02T07:41:57;33.10;;;11.52;;
82170;SDS011;71755;48.038;14.346;2024-03-02T07:44:23;25.27;;;11.68;;
82170;SDS011;71755;48.038;14.346;2024-03-02T07:46:49;37.35;;;12.88;;
82170;SDS011;71755;48.038;14.346;2024-03-02T07:49:15;34.90;;;12.60;;
82170;SDS011;71755;48.038;14.346;2024-03-02T07:51:42;38.22;;;10.75;;
82170;SDS011;71755;48.038;14.346;2024-03-02T07:54:08;49.13;;;13.70;;
82170;SDS011;71755;48.038;14.346;2024-03-02T07:56:35;28.17;;;10.43;;
82170;SDS011;71755;48.038;14.346;2024-03-02T07:59:01;27.17;;;13.10;;
82170;SDS011;71755;48.038;14.346;2024-03-02T08:01:28;24.35;;;9.65;;
82170;SDS011;71755;48.038;14.346;2024-03-02T08:03:57;33.75;;;13.68;;
82170;SDS011;71755;48.038;14.346;2024-03-02T08:06:24;32.88;;;11.63;;
82170;SDS011;71755;48.038;14.346;2024-03-02T08:08:54;31.88;;;12.20;;
82170;SDS011;71755;48.038;14.346;2024-03-02T08:11:21;40.08;;;14.60;;
82170;SDS011;71755;48.038;14.346;2024-03-02T08:13:47;29.90;;;11.40;;
82170;SDS011;71755;48.038;14.346;2024-03-02T08:16:14;28.13;;;12.23;;
82170;SDS011;71755;48.038;14.346;2024-03-02T08:18:41;56.28;;;12.60;;
82170;SDS011;71755;48.038;14.346;2024-03-02T08:21:07;36.55;;;11.40;;
82170;SDS011;71755;48.038;14.346;2024-03-02T08:23:34;40.47;;;12.05;;
82170;SDS011;71755;48.038;14.346;2024-03-02T08:26:00;32.38;;;12.65;;
82170;SDS011;71755;48.038;14.346;2024-03-02T08:28:26;37.42;;;13.73;;
82170;SDS011;71755;48.038;14.346;2024-03-02T08:30:52;40.60;;;13.45;;
82170;SDS011;71755;48.038;14.346;2024-03-02T08:33:17;25.67;;;10.30;;
82170;SDS011;71755;48.038;14.346;2024-03-02T08:35:44;30.58;;;10.75;;
82170;SDS011;71755;48.038;14.346;2024-03-02T08:38:09;34.00;;;13.73;;
82170;SDS011;71755;48.038;14.346;2024-03-02T08:40:35;30.20;;;10.90;;
82170;SDS011;71755;48.038;14.346;2024-03-02T08:43:01;31.83;;;13.30;;
82170;SDS011;71755;48.038;14.346;2024-03-02T08:45:27;33.28;;;14.65;;
82170;SDS011;71755;48.038;14.346;2024-03-02T08:47:53;26.40;;;8.82;;
82170;SDS011;71755;48.038;14.346;2024-03-02T08:50:18;28.75;;;9.70;;
82170;SDS011;71755;48.038;14.346;2024-03-02T08:52:45;28.50;;;9.80;;
82170;SDS011;71755;48.038;14.346;2024-03-02T08:55:11;21.70;;;10.20;;
82170;SDS011;71755;48.038;14.346;2024-03-02T08:57:37;29.92;;;8.70;;
82170;SDS011;71755;48.038;14.346;2024-03-02T09:00:03;37.45;;;9.30;;
82170;SDS011;71755;48.038;14.346;2024-03-02T09:02:30;22.98;;;10.25;;
82170;SDS011;71755;48.038;14.346;2024-03-02T09:04:57;34.90;;;11.80;;
82170;SDS011;71755;48.038;14.346;2024-03-02T09:07:23;29.70;;;9.07;;
82170;SDS011;71755;48.038;14.346;2024-03-02T09:09:49;30.15;;;8.38;;
82170;SDS011;71755;48.038;14.346;2024-03-02T09:12:15;22.67;;;8.73;;
82170;SDS011;71755;48.038;14.346;2024-03-02T09:14:41;24.38;;;10.18;;
82170;SDS011;71755;48.038;14.346;2024-03-02T09:17:07;19.48;;;7.45;;
82170;SDS011;71755;48.038;14.346;2024-03-02T09:19:36;19.58;;;8.27;;
82170;SDS011;71755;48.038;14.346;2024-03-02T09:22:02;21.50;;;8.45;;
82170;SDS011;71755;48.038;14.346;2024-03-02T09:24:31;32.85;;;10.43;;
82170;SDS011;71755;48.038;14.346;2024-03-02T09:27:01;16.23;;;7.70;;
82170;SDS011;71755;48.038;14.346;2024-03-02T09:29:27;17.27;;;7.70;;
82170;SDS011;71755;48.038;14.346;2024-03-02T09:31:53;19.30;;;7.18;;
82170;SDS011;71755;48.038;14.346;2024-03-02T09:34:19;13.20;;;6.72;;
82170;SDS011;71755;48.038;14.346;2024-03-02T09:36:44;10.07;;;5.45;;
82170;SDS011;71755;48.038;14.346;2024-03-02T09:39:11;18.90;;;7.40;;
82170;SDS011;71755;48.038;14.346;2024-03-02T09:41:37;19.92;;;7.55;;
82170;SDS011;71755;48.038;14.346;2024-03-02T09:44:04;18.85;;;9.45;;
82170;SDS011;71755;48.038;14.346;2024-03-02T09:46:31;23.40;;;10.05;;
82170;SDS011;71755;48.038;14.346;2024-03-02T09:48:58;22.00;;;7.55;;
82170;SDS011;71755;48.038;14.346;2024-03-02T09:51:24;18.63;;;9.95;;
82170;SDS011;71755;48.038;14.346;2024-03-02T09:53:50;24.52;;;8.77;;
82170;SDS011;71755;48.038;14.346;2024-03-02T09:56:16;26.33;;;8.15;;
82170;SDS011;71755;48.038;14.346;2024-03-02T09:58:43;30.20;;;9.50;;
82170;SDS011;71755;48.038;14.346;2024-03-02T10:01:10;22.10;;;9.02;;
82170;SDS011;71755;48.038;14.346;2024-03-02T10:03:38;21.30;;;8.80;;
82170;SDS011;71755;48.038;14.346;2024-03-02T10:06:23;26.60;;;11.93;;
82170;SDS011;71755;48.038;14.346;2024-03-02T10:08:51;21.75;;;8.43;;
82170;SDS011;71755;48.038;14.346;2024-03-02T10:11:33;27.45;;;9.65;;
82170;SDS011;71755;48.038;14.346;2024-03-02T10:14:11;28.35;;;9.40;;
82170;SDS011;71755;48.038;14.346;2024-03-02T10:16:42;26.17;;;8.57;;
82170;SDS011;71755;48.038;14.346;2024-03-02T10:19:20;26.60;;;12.20;;
82170;SDS011;71755;48.038;14.346;2024-03-02T10:21:54;33.28;;;9.85;;
82170;SDS011;71755;48.038;14.346;2024-03-02T10:24:23;15.85;;;8.48;;
82170;SDS011;71755;48.038;14.346;2024-03-02T10:26:50;23.05;;;10.13;;
82170;SDS011;71755;48.038;14.346;2024-03-02T10:29:16;17.58;;;7.72;;
82170;SDS011;71755;48.038;14.346;2024-03-02T10:31:45;27.15;;;8.60;;
82170;SDS011;71755;48.038;14.346;2024-03-02T10:34:12;26.67;;;8.80;;
82170;SDS011;71755;48.038;14.346;2024-03-02T10:36:42;22.73;;;8.07;;
82170;SDS011;71755;48.038;14.346;2024-03-02T10:39:11;15.13;;;7.03;;
82170;SDS011;71755;48.038;14.346;2024-03-02T10:41:40;21.08;;;7.45;;
82170;SDS011;71755;48.038;14.346;2024-03-02T10:44:07;13.95;;;6.25;;
82170;SDS011;71755;48.038;14.346;2024-03-02T10:46:35;22.38;;;6.22;;
82170;SDS011;71755;48.038;14.346;2024-03-02T10:49:03;20.55;;;8.10;;
82170;SDS011;71755;48.038;14.346;2024-03-02T10:51:31;20.83;;;7.47;;
82170;SDS011;71755;48.038;14.346;2024-03-02T10:53:59;27.52;;;8.85;;
82170;SDS011;71755;48.038;14.346;2024-03-02T10:56:39;22.75;;;8.15;;
82170;SDS011;71755;48.038;14.346;2024-03-02T11:01:46;24.05;;;7.15;;
82170;SDS011;71755;48.038;14.346;2024-03-02T11:04:15;20.02;;;7.20;;
82170;SDS011;71755;48.038;14.346;2024-03-02T11:06:52;27.30;;;7.40;;
82170;SDS011;71755;48.038;14.346;2024-03-02T11:09:25;15.32;;;6.57;;
82170;SDS011;71755;48.038;14.346;2024-03-02T11:12:03;23.20;;;7.60;;
82170;SDS011;71755;48.038;14.346;2024-03-02T11:14:41;21.40;;;10.48;;
82170;SDS011;71755;48.038;14.346;2024-03-02T11:17:11;19.77;;;7.30;;
82170;SDS011;71755;48.038;14.346;2024-03-02T11:19:42;18.20;;;7.47;;
82170;SDS011;71755;48.038;14.346;2024-03-02T11:22:10;23.23;;;7.53;;
82170;SDS011;71755;48.038;14.346;2024-03-02T11:24:37;17.42;;;9.57;;
82170;SDS011;71755;48.038;14.346;2024-03-02T11:27:04;18.50;;;6.93;;
82170;SDS011;71755;48.038;14.346;2024-03-02T11:32:22;18.27;;;7.30;;
82170;SDS011;71755;48.038;14.346;2024-03-02T11:34:49;20.10;;;7.65;;
82170;SDS011;71755;48.038;14.346;2024-03-02T11:37:17;16.67;;;6.25;;
82170;SDS011;71755;48.038;14.346;2024-03-02T11:39:46;13.02;;;7.13;;
82170;SDS011;71755;48.038;14.346;2024-03-02T11:42:16;18.20;;;7.68;;
82170;SDS011;71755;48.038;14.346;2024-03-02T11:44:43;23.95;;;9.52;;
82170;SDS011;71755;48.038;14.346;2024-03-02T11:47:12;19.73;;;6.68;;
82170;SDS011;71755;48.038;14.346;2024-03-02T11:52:06;15.13;;;6.93;;
82170;SDS011;71755;48.038;14.346;2024-03-02T11:54:35;15.68;;;6.82;;
82170;SDS011;71755;48.038;14.346;2024-03-02T11:57:15;29.10;;;8.00;;
82170;SDS011;71755;48.038;14.346;2024-03-02T11:59:43;25.90;;;9.23;;
82170;SDS011;71755;48.038;14.346;2024-03-02T12:02:16;24.70;;;7.80;;
82170;SDS011;71755;48.038;14.346;2024-03-02T12:04:45;23.73;;;8.15;;
82170;SDS011;71755;48.038;14.346;2024-03-02T12:07:20;25.88;;;8.95;;
82170;SDS011;71755;48.038;14.346;2024-03-02T12:09:47;20.33;;;8.38;;
82170;SDS011;71755;48.038;14.346;2024-03-02T12:12:14;25.05;;;8.30;;
82170;SDS011;71755;48.038;14.346;2024-03-02T12:14:49;19.10;;;9.05;;
82170;SDS011;71755;48.038;14.346;2024-03-02T12:17:17;17.30;;;8.73;;
82170;SDS011;71755;48.038;14.346;2024-03-02T12:19:42;21.33;;;7.18;;
82170;SDS011;71755;48.038;14.346;2024-03-02T12:22:08;17.95;;;7.97;;
82170;SDS011;71755;48.038;14.346;2024-03-02T12:24:33;22.38;;;9.25;;
82170;SDS011;71755;48.038;14.346;2024-03-02T12:27:00;19.95;;;8.00;;
82170;SDS011;71755;48.038;14.346;2024-03-02T12:29:26;19.58;;;8.07;;
82170;SDS011;71755;48.038;14.346;2024-03-02T12:31:52;22.15;;;8.63;;
82170;SDS011;71755;48.038;14.346;2024-03-02T12:34:21;13.75;;;7.85;;
82170;SDS011;71755;48.038;14.346;2024-03-02T12:36:48;17.05;;;8.98;;
82170;SDS011;71755;48.038;14.346;2024-03-02T12:39:17;15.27;;;8.32;;
82170;SDS011;71755;48.038;14.346;2024-03-02T12:41:51;19.08;;;7.82;;
82170;SDS011;71755;48.038;14.346;2024-03-02T12:44:19;17.00;;;7.38;;
82170;SDS011;71755;48.038;14.346;2024-03-02T12:46:46;28.85;;;9.68;;
82170;SDS011;71755;48.038;14.346;2024-03-02T12:49:14;19.50;;;9.45;;
82170;SDS011;71755;48.038;14.346;2024-03-02T12:51:46;19.85;;;9.88;;
82170;SDS011;71755;48.038;14.346;2024-03-02T12:54:17;18.38;;;7.72;;
82170;SDS011;71755;48.038;14.346;2024-03-02T12:56:43;18.80;;;7.40;;
82170;SDS011;71755;48.038;14.346;2024-03-02T12:59:21;19.33;;;7.60;;
82170;SDS011;71755;48.038;14.346;2024-03-02T13:01:55;25.08;;;9.20;;
82170;SDS011;71755;48.038;14.346;2024-03-02T13:04:26;28.20;;;9.50;;
82170;SDS011;71755;48.038;14.346;2024-03-02T13:06:54;17.40;;;7.25;;
82170;SDS011;71755;48.038;14.346;2024-03-02T13:09:24;15.02;;;7.47;;
82170;SDS011;71755;48.038;14.346;2024-03-02T13:11:50;18.30;;;8.30;;
82170;SDS011;71755;48.038;14.346;2024-03-02T13:14:16;22.42;;;8.18;;
82170;SDS011;71755;48.038;14.346;2024-03-02T13:16:42;17.70;;;8.13;;
82170;SDS011;71755;48.038;14.346;2024-03-02T13:19:12;24.73;;;7.55;;
82170;SDS011;71755;48.038;14.346;2024-03-02T13:21:38;15.13;;;7.53;;
82170;SDS011;71755;48.038;14.346;2024-03-02T13:24:04;18.55;;;8.15;;
82170;SDS011;71755;48.038;14.346;2024-03-02T13:26:31;17.42;;;6.75;;
82170;SDS011;71755;48.038;14.346;2024-03-02T13:28:57;18.65;;;8.85;;
82170;SDS011;71755;48.038;14.346;2024-03-02T13:31:23;17.15;;;7.72;;
82170;SDS011;71755;48.038;14.346;2024-03-02T13:33:49;14.35;;;6.72;;
82170;SDS011;71755;48.038;14.346;2024-03-02T13:36:14;19.63;;;7.55;;
82170;SDS011;71755;48.038;14.346;2024-03-02T13:38:40;20.38;;;8.10;;
82170;SDS011;71755;48.038;14.346;2024-03-02T13:41:06;16.05;;;7.30;;
82170;SDS011;71755;48.038;14.346;2024-03-02T13:43:32;19.25;;;8.38;;
82170;SDS011;71755;48.038;14.346;2024-03-02T13:45:58;22.45;;;8.95;;
82170;SDS011;71755;48.038;14.346;2024-03-02T13:48:24;20.85;;;8.38;;
82170;SDS011;71755;48.038;14.346;2024-03-02T13:50:53;16.48;;;6.18;;
82170;SDS011;71755;48.038;14.346;2024-03-02T13:53:20;17.33;;;7.93;;
82170;SDS011;71755;48.038;14.346;2024-03-02T13:55:46;19.70;;;8.93;;
82170;SDS011;71755;48.038;14.346;2024-03-02T13:58:12;25.02;;;7.85;;
82170;SDS011;71755;48.038;14.346;2024-03-02T14:00:38;16.30;;;7.85;;
82170;SDS011;71755;48.038;14.346;2024-03-02T14:03:06;16.70;;;7.57;;
82170;SDS011;71755;48.038;14.346;2024-03-02T14:05:32;17.08;;;7.18;;
82170;SDS011;71755;48.038;14.346;2024-03-02T14:07:58;25.52;;;8.25;;
82170;SDS011;71755;48.038;14.346;2024-03-02T14:10:26;13.50;;;6.43;;
82170;SDS011;71755;48.038;14.346;2024-03-02T14:12:53;18.27;;;6.80;;
82170;SDS011;71755;48.038;14.346;2024-03-02T14:15:21;13.30;;;7.03;;
82170;SDS011;71755;48.038;14.346;2024-03-02T14:17:47;21.27;;;7.43;;
82170;SDS011;71755;48.038;14.346;2024-03-02T14:20:14;17.88;;;6.38;;
82170;SDS011;71755;48.038;14.346;2024-03-02T14:22:40;24.52;;;9.50;;
82170;SDS011;71755;48.038;14.346;2024-03-02T14:25:06;26.25;;;9.93;;
82170;SDS011;71755;48.038;14.346;2024-03-02T14:27:32;23.25;;;8.73;;
82170;SDS011;71755;48.038;14.346;2024-03-02T14:29:59;14.18;;;6.63;;
82170;SDS011;71755;48.038;14.346;2024-03-02T14:32:25;16.23;;;8.32;;
82170;SDS011;71755;48.038;14.346;2024-03-02T14:34:51;17.30;;;7.97;;